Aérodrome :
LOGIN :

S'inscrire | Disclaimer

   EN    FR    IT 

 










Légende :    VFR   VFR Marginal   IFR   IFR Intensif   IFR Très Intensif
Visi : 
Plafond : 
>= 8 km
>= 3000ft
5 à 8 km
1000 à 3000 ft
1500m à 5 km
500 à 1000 ft
800 à 1500m
200 à 500 ft
< 800m
< 200 ft
Symboles :   Orages  Brouillard  Fortes neiges  Fortes précipitations  Vent > 20 kt
SIGMETs :   Divers  Orages  Givrage  Turbulence  Onde Orograph.  Cendres Volcan.







- Altitude de l'aérodrome : 659 ft
- Code IATA : LGG


EBLG - Liège

DERNIER METAR :
  • 180150Z 14008KT 4000 HZ NSC 13/08 Q1015 NOSIG

METARs EXPIRÉS :
  • 180120Z 13006KT 3500 R22L/P2000N R22R/1300D R04R/1400U HZ NSC 13/08 Q1015 NOSIG
  • 180050Z 12005KT 5000 BR NSC 14/09 Q1015 NOSIG
  • 180020Z 12005KT 4000 BR NSC 13/13 Q1015 NOSIG
  • 172350Z 13006KT 4000 BR NSC 13/13 Q1016 NOSIG
  • 172320Z 13005KT 090V250 4500 HZ NSC 14/10 Q1016 NOSIG

TAF TAF EBLG
Valide du 18 à 00h jusqu'au 19 à 06h UTC


172300Z 1800/1906 10004KT 6000 NSC
BECMG 1800/1802 3000 BR
TEMPO 1802/1807 0500 FG
BECMG 1807/1809 CAVOK
Pas de NOTAMs connus pour ce terrain.



MET'MAP, la Météo Aéronautique d'un coup d'oeil ! - Copyright ORBIFLY Décembre 2007 - Disclaimer

ORBIFLY MET'MAP TEAM :

Programmation & Développement : Alexandra Zaïnal
Conception & Développement : Baudouin d'Aumeries
Co-Programmation & Développement : Marc-Olivier Méhu
Soutien technique & logistique : Manuel Goepfert

Contact : metmap@orbifly.com




SOURCES & CREDITS :

   NOAA